sensor_id;sensor_type;location;lat;lon;timestamp;temperature;humidity
47576;DHT22;33304;52.456;13.328;2023-03-15T00:00:23;2.80;33.10
47576;DHT22;33304;52.456;13.328;2023-03-15T00:02:50;2.80;33.60
47576;DHT22;33304;52.456;13.328;2023-03-15T00:05:18;2.80;34.00
47576;DHT22;33304;52.456;13.328;2023-03-15T00:07:46;2.80;33.20
47576;DHT22;33304;52.456;13.328;2023-03-15T00:10:13;2.80;33.10
47576;DHT22;33304;52.456;13.328;2023-03-15T00:12:40;2.80;33.30
47576;DHT22;33304;52.456;13.328;2023-03-15T00:15:12;2.80;33.10
47576;DHT22;33304;52.456;13.328;2023-03-15T00:17:39;2.80;33.20
47576;DHT22;33304;52.456;13.328;2023-03-15T00:20:07;2.80;33.70
47576;DHT22;33304;52.456;13.328;2023-03-15T00:22:35;2.70;33.40
47576;DHT22;33304;52.456;13.328;2023-03-15T00:25:02;2.80;33.30
47576;DHT22;33304;52.456;13.328;2023-03-15T00:27:30;2.80;33.50
47576;DHT22;33304;52.456;13.328;2023-03-15T00:29:57;2.70;33.90
47576;DHT22;33304;52.456;13.328;2023-03-15T00:32:25;2.70;33.40
47576;DHT22;33304;52.456;13.328;2023-03-15T00:34:52;2.70;33.40
47576;DHT22;33304;52.456;13.328;2023-03-15T00:37:19;2.60;34.10
47576;DHT22;33304;52.456;13.328;2023-03-15T00:39:47;2.70;34.40
47576;DHT22;33304;52.456;13.328;2023-03-15T00:42:14;2.60;33.20
47576;DHT22;33304;52.456;13.328;2023-03-15T00:44:42;2.60;33.70
47576;DHT22;33304;52.456;13.328;2023-03-15T00:47:09;2.60;33.70
47576;DHT22;33304;52.456;13.328;2023-03-15T00:49:38;2.60;33.90
47576;DHT22;33304;52.456;13.328;2023-03-15T00:52:06;2.70;34.30
47576;DHT22;33304;52.456;13.328;2023-03-15T00:54:33;2.70;33.90
47576;DHT22;33304;52.456;13.328;2023-03-15T00:57:01;2.60;34.00
47576;DHT22;33304;52.456;13.328;2023-03-15T00:59:30;2.70;35.00
47576;DHT22;33304;52.456;13.328;2023-03-15T01:02:00;2.60;34.40
47576;DHT22;33304;52.456;13.328;2023-03-15T01:04:27;2.50;34.50
47576;DHT22;33304;52.456;13.328;2023-03-15T01:06:55;2.50;34.90
47576;DHT22;33304;52.456;13.328;2023-03-15T01:09:23;2.50;34.80
47576;DHT22;33304;52.456;13.328;2023-03-15T01:11:50;2.60;34.20
47576;DHT22;33304;52.456;13.328;2023-03-15T01:14:17;2.50;34.40
47576;DHT22;33304;52.456;13.328;2023-03-15T01:16:45;2.50;34.40
47576;DHT22;33304;52.456;13.328;2023-03-15T01:19:12;2.50;34.20
47576;DHT22;33304;52.456;13.328;2023-03-15T01:21:40;2.50;33.70
47576;DHT22;33304;52.456;13.328;2023-03-15T01:24:11;2.60;34.40
47576;DHT22;33304;52.456;13.328;2023-03-15T01:26:39;2.50;34.30
47576;DHT22;33304;52.456;13.328;2023-03-15T01:29:06;2.50;34.40
47576;DHT22;33304;52.456;13.328;2023-03-15T01:31:33;2.40;35.50
47576;DHT22;33304;52.456;13.328;2023-03-15T01:34:00;2.40;35.30
47576;DHT22;33304;52.456;13.328;2023-03-15T01:36:31;2.30;34.70
47576;DHT22;33304;52.456;13.328;2023-03-15T01:38:58;2.30;35.30
47576;DHT22;33304;52.456;13.328;2023-03-15T01:41:33;2.30;35.70
47576;DHT22;33304;52.456;13.328;2023-03-15T01:44:00;2.40;35.70
47576;DHT22;33304;52.456;13.328;2023-03-15T01:46:28;2.40;35.00
47576;DHT22;33304;52.456;13.328;2023-03-15T01:49:09;2.40;35.30
47576;DHT22;33304;52.456;13.328;2023-03-15T01:51:43;2.30;35.30
47576;DHT22;33304;52.456;13.328;2023-03-15T01:54:14;2.30;35.60
47576;DHT22;33304;52.456;13.328;2023-03-15T01:56:47;2.20;35.50
47576;DHT22;33304;52.456;13.328;2023-03-15T01:59:23;2.30;36.50
47576;DHT22;33304;52.456;13.328;2023-03-15T02:01:53;2.20;36.60
47576;DHT22;33304;52.456;13.328;2023-03-15T02:04:23;2.30;36.60
47576;DHT22;33304;52.456;13.328;2023-03-15T02:06:54;2.20;36.30
47576;DHT22;33304;52.456;13.328;2023-03-15T02:09:29;2.10;36.40
47576;DHT22;33304;52.456;13.328;2023-03-15T02:12:00;2.10;37.40
47576;DHT22;33304;52.456;13.328;2023-03-15T02:14:28;2.10;36.40
47576;DHT22;33304;52.456;13.328;2023-03-15T02:16:57;2.00;37.40
47576;DHT22;33304;52.456;13.328;2023-03-15T02:19:35;2.00;37.40
47576;DHT22;33304;52.456;13.328;2023-03-15T02:22:11;1.90;37.30
47576;DHT22;33304;52.456;13.328;2023-03-15T02:24:48;2.00;37.40
47576;DHT22;33304;52.456;13.328;2023-03-15T02:27:22;2.00;37.40
47576;DHT22;33304;52.456;13.328;2023-03-15T02:29:51;1.90;37.30
47576;DHT22;33304;52.456;13.328;2023-03-15T02:32:19;1.90;37.30
47576;DHT22;33304;52.456;13.328;2023-03-15T02:34:48;2.10;37.60
47576;DHT22;33304;52.456;13.328;2023-03-15T02:37:15;1.90;37.30
47576;DHT22;33304;52.456;13.328;2023-03-15T02:39:42;1.80;38.20
47576;DHT22;33304;52.456;13.328;2023-03-15T02:42:12;1.80;38.20
47576;DHT22;33304;52.456;13.328;2023-03-15T02:44:43;1.80;38.20
47576;DHT22;33304;52.456;13.328;2023-03-15T02:47:16;1.80;38.00
47576;DHT22;33304;52.456;13.328;2023-03-15T02:49:49;1.80;38.70
47576;DHT22;33304;52.456;13.328;2023-03-15T02:52:16;1.90;38.40
47576;DHT22;33304;52.456;13.328;2023-03-15T02:54:43;1.80;37.30
47576;DHT22;33304;52.456;13.328;2023-03-15T02:57:12;1.80;39.30
47576;DHT22;33304;52.456;13.328;2023-03-15T02:59:41;1.80;38.30
47576;DHT22;33304;52.456;13.328;2023-03-15T03:02:08;1.80;39.10
47576;DHT22;33304;52.456;13.328;2023-03-15T03:04:37;1.70;39.30
47576;DHT22;33304;52.456;13.328;2023-03-15T03:07:04;1.60;39.50
47576;DHT22;33304;52.456;13.328;2023-03-15T03:09:38;1.60;40.40
47576;DHT22;33304;52.456;13.328;2023-03-15T03:12:06;1.50;40.50
47576;DHT22;33304;52.456;13.328;2023-03-15T03:14:33;1.50;40.60
47576;DHT22;33304;52.456;13.328;2023-03-15T03:17:03;1.40;40.80
47576;DHT22;33304;52.456;13.328;2023-03-15T03:19:30;1.30;41.30
47576;DHT22;33304;52.456;13.328;2023-03-15T03:21:57;1.30;41.80
47576;DHT22;33304;52.456;13.328;2023-03-15T03:24:24;1.30;42.00
47576;DHT22;33304;52.456;13.328;2023-03-15T03:26:53;1.30;43.00
47576;DHT22;33304;52.456;13.328;2023-03-15T03:29:23;1.30;42.50
47576;DHT22;33304;52.456;13.328;2023-03-15T03:31:51;1.20;42.70
47576;DHT22;33304;52.456;13.328;2023-03-15T03:34:21;1.20;43.00
47576;DHT22;33304;52.456;13.328;2023-03-15T03:36:50;1.20;42.80
47576;DHT22;33304;52.456;13.328;2023-03-15T03:39:26;1.20;43.50
47576;DHT22;33304;52.456;13.328;2023-03-15T03:41:53;1.30;43.30
47576;DHT22;33304;52.456;13.328;2023-03-15T03:44:20;1.30;42.50
47576;DHT22;33304;52.456;13.328;2023-03-15T03:46:48;1.30;43.10
47576;DHT22;33304;52.456;13.328;2023-03-15T03:49:16;1.20;42.80
47576;DHT22;33304;52.456;13.328;2023-03-15T03:51:46;1.40;43.30
47576;DHT22;33304;52.456;13.328;2023-03-15T03:54:13;1.20;42.60
47576;DHT22;33304;52.456;13.328;2023-03-15T03:56:40;1.10;43.30
47576;DHT22;33304;52.456;13.328;2023-03-15T03:59:07;1.10;43.70
47576;DHT22;33304;52.456;13.328;2023-03-15T04:01:48;1.10;43.50
47576;DHT22;33304;52.456;13.328;2023-03-15T04:04:16;1.10;43.60
47576;DHT22;33304;52.456;13.328;2023-03-15T04:06:45;1.10;44.20
47576;DHT22;33304;52.456;13.328;2023-03-15T04:09:17;1.10;44.30
47576;DHT22;33304;52.456;13.328;2023-03-15T04:11:47;1.00;44.50
47576;DHT22;33304;52.456;13.328;2023-03-15T04:14:16;1.10;45.00
47576;DHT22;33304;52.456;13.328;2023-03-15T04:16:45;1.00;44.50
47576;DHT22;33304;52.456;13.328;2023-03-15T04:19:15;0.90;44.60
47576;DHT22;33304;52.456;13.328;2023-03-15T04:21:42;0.90;45.00
47576;DHT22;33304;52.456;13.328;2023-03-15T04:24:30;0.90;45.50
47576;DHT22;33304;52.456;13.328;2023-03-15T04:27:17;1.00;46.10
47576;DHT22;33304;52.456;13.328;2023-03-15T04:30:08;1.20;44.70
47576;DHT22;33304;52.456;13.328;2023-03-15T04:32:41;1.20;44.00
47576;DHT22;33304;52.456;13.328;2023-03-15T04:35:19;1.20;43.80
47576;DHT22;33304;52.456;13.328;2023-03-15T04:37:54;1.20;44.10
47576;DHT22;33304;52.456;13.328;2023-03-15T04:40:47;1.30;43.80
47576;DHT22;33304;52.456;13.328;2023-03-15T04:43:33;1.20;44.10
47576;DHT22;33304;52.456;13.328;2023-03-15T04:46:10;1.10;44.60
47576;DHT22;33304;52.456;13.328;2023-03-15T04:48:55;1.10;44.40
47576;DHT22;33304;52.456;13.328;2023-03-15T04:51:48;0.90;44.60
47576;DHT22;33304;52.456;13.328;2023-03-15T04:54:24;0.90;45.10
47576;DHT22;33304;52.456;13.328;2023-03-15T04:57:03;0.80;45.50
47576;DHT22;33304;52.456;13.328;2023-03-15T04:59:51;0.80;46.20
47576;DHT22;33304;52.456;13.328;2023-03-15T05:02:44;1.00;46.20
47576;DHT22;33304;52.456;13.328;2023-03-15T05:05:25;1.00;46.50
47576;DHT22;33304;52.456;13.328;2023-03-15T05:08:04;1.00;45.80
47576;DHT22;33304;52.456;13.328;2023-03-15T05:10:51;0.90;45.90
47576;DHT22;33304;52.456;13.328;2023-03-15T05:13:39;0.90;46.20
47576;DHT22;33304;52.456;13.328;2023-03-15T05:16:18;0.90;46.90
47576;DHT22;33304;52.456;13.328;2023-03-15T05:18:54;1.10;46.50
47576;DHT22;33304;52.456;13.328;2023-03-15T05:21:46;1.10;46.50
47576;DHT22;33304;52.456;13.328;2023-03-15T05:24:25;1.00;46.50
47576;DHT22;33304;52.456;13.328;2023-03-15T05:27:10;1.20;46.20
47576;DHT22;33304;52.456;13.328;2023-03-15T05:30:07;1.00;45.30
47576;DHT22;33304;52.456;13.328;2023-03-15T05:32:59;0.90;45.80
47576;DHT22;33304;52.456;13.328;2023-03-15T05:36:00;0.90;45.50
47576;DHT22;33304;52.456;13.328;2023-03-15T05:38:52;0.80;46.30
47576;DHT22;33304;52.456;13.328;2023-03-15T05:41:25;0.90;47.20
47576;DHT22;33304;52.456;13.328;2023-03-15T05:44:09;0.90;47.70
47576;DHT22;33304;52.456;13.328;2023-03-15T05:47:01;1.00;47.20
47576;DHT22;33304;52.456;13.328;2023-03-15T05:49:38;1.00;45.90
47576;DHT22;33304;52.456;13.328;2023-03-15T05:52:21;1.00;47.50
47576;DHT22;33304;52.456;13.328;2023-03-15T05:54:59;1.00;46.70
47576;DHT22;33304;52.456;13.328;2023-03-15T05:57:41;1.00;46.20
47576;DHT22;33304;52.456;13.328;2023-03-15T06:00:34;1.10;46.40
47576;DHT22;33304;52.456;13.328;2023-03-15T06:03:10;1.40;45.60
47576;DHT22;33304;52.456;13.328;2023-03-15T06:05:49;1.30;44.70
47576;DHT22;33304;52.456;13.328;2023-03-15T06:08:24;1.30;44.90
47576;DHT22;33304;52.456;13.328;2023-03-15T06:10:51;1.20;44.80
47576;DHT22;33304;52.456;13.328;2023-03-15T06:13:19;1.30;45.10
47576;DHT22;33304;52.456;13.328;2023-03-15T06:15:47;1.60;44.60
47576;DHT22;33304;52.456;13.328;2023-03-15T06:18:17;1.50;43.90
47576;DHT22;33304;52.456;13.328;2023-03-15T06:20:47;1.50;43.30
47576;DHT22;33304;52.456;13.328;2023-03-15T06:23:14;1.50;43.70
47576;DHT22;33304;52.456;13.328;2023-03-15T06:25:44;1.70;42.80
47576;DHT22;33304;52.456;13.328;2023-03-15T06:28:12;1.80;42.70
47576;DHT22;33304;52.456;13.328;2023-03-15T06:30:45;1.80;43.00
47576;DHT22;33304;52.456;13.328;2023-03-15T06:33:12;1.90;43.40
47576;DHT22;33304;52.456;13.328;2023-03-15T06:35:41;2.00;43.10
47576;DHT22;33304;52.456;13.328;2023-03-15T06:38:08;2.10;43.10
47576;DHT22;33304;52.456;13.328;2023-03-15T06:40:37;2.20;43.20
47576;DHT22;33304;52.456;13.328;2023-03-15T06:43:04;2.20;43.20
47576;DHT22;33304;52.456;13.328;2023-03-15T06:45:32;2.30;43.10
47576;DHT22;33304;52.456;13.328;2023-03-15T06:47:59;2.40;42.60
47576;DHT22;33304;52.456;13.328;2023-03-15T06:50:29;2.40;42.30
47576;DHT22;33304;52.456;13.328;2023-03-15T06:52:57;2.40;42.80
47576;DHT22;33304;52.456;13.328;2023-03-15T06:55:25;2.50;42.60
47576;DHT22;33304;52.456;13.328;2023-03-15T06:57:53;2.50;43.30
47576;DHT22;33304;52.456;13.328;2023-03-15T07:00:20;2.40;43.40
47576;DHT22;33304;52.456;13.328;2023-03-15T07:02:47;2.40;44.10
47576;DHT22;33304;52.456;13.328;2023-03-15T07:05:15;2.50;43.90
47576;DHT22;33304;52.456;13.328;2023-03-15T07:07:42;2.50;44.10
47576;DHT22;33304;52.456;13.328;2023-03-15T07:10:11;2.50;43.50
47576;DHT22;33304;52.456;13.328;2023-03-15T07:12:38;2.60;43.50
47576;DHT22;33304;52.456;13.328;2023-03-15T07:15:06;2.40;43.40
47576;DHT22;33304;52.456;13.328;2023-03-15T07:17:33;2.30;44.00
47576;DHT22;33304;52.456;13.328;2023-03-15T07:20:00;2.30;43.90
47576;DHT22;33304;52.456;13.328;2023-03-15T07:22:30;2.40;43.40
47576;DHT22;33304;52.456;13.328;2023-03-15T07:24:57;2.60;43.50
47576;DHT22;33304;52.456;13.328;2023-03-15T07:27:26;2.40;42.60
47576;DHT22;33304;52.456;13.328;2023-03-15T07:29:54;2.60;42.40
47576;DHT22;33304;52.456;13.328;2023-03-15T07:32:21;2.90;41.40
47576;DHT22;33304;52.456;13.328;2023-03-15T07:34:48;2.90;40.00
47576;DHT22;33304;52.456;13.328;2023-03-15T07:37:15;3.20;38.90
47576;DHT22;33304;52.456;13.328;2023-03-15T07:39:43;3.20;38.40
47576;DHT22;33304;52.456;13.328;2023-03-15T07:42:10;3.20;38.40
47576;DHT22;33304;52.456;13.328;2023-03-15T07:44:41;3.30;37.80
47576;DHT22;33304;52.456;13.328;2023-03-15T07:47:09;3.30;35.70
47576;DHT22;33304;52.456;13.328;2023-03-15T07:49:36;3.60;35.80
47576;DHT22;33304;52.456;13.328;2023-03-15T07:52:04;3.70;34.80
47576;DHT22;33304;52.456;13.328;2023-03-15T07:54:31;3.70;35.00
47576;DHT22;33304;52.456;13.328;2023-03-15T07:56:59;3.80;34.70
47576;DHT22;33304;52.456;13.328;2023-03-15T07:59:26;3.80;33.30
47576;DHT22;33304;52.456;13.328;2023-03-15T08:01:54;3.90;33.70
47576;DHT22;33304;52.456;13.328;2023-03-15T08:04:22;3.90;32.40
47576;DHT22;33304;52.456;13.328;2023-03-15T08:06:49;4.00;33.10
47576;DHT22;33304;52.456;13.328;2023-03-15T08:09:16;4.10;31.80
47576;DHT22;33304;52.456;13.328;2023-03-15T08:11:43;4.00;30.90
47576;DHT22;33304;52.456;13.328;2023-03-15T08:14:10;4.10;30.90
47576;DHT22;33304;52.456;13.328;2023-03-15T08:16:37;4.00;32.60
47576;DHT22;33304;52.456;13.328;2023-03-15T08:19:05;4.00;30.40
47576;DHT22;33304;52.456;13.328;2023-03-15T08:21:32;4.20;31.30
47576;DHT22;33304;52.456;13.328;2023-03-15T08:24:00;4.40;31.20
47576;DHT22;33304;52.456;13.328;2023-03-15T08:26:30;4.40;29.90
47576;DHT22;33304;52.456;13.328;2023-03-15T08:28:57;4.30;30.00
47576;DHT22;33304;52.456;13.328;2023-03-15T08:31:24;4.30;29.60
47576;DHT22;33304;52.456;13.328;2023-03-15T08:33:51;4.20;30.40
47576;DHT22;33304;52.456;13.328;2023-03-15T08:36:20;4.30;30.30
47576;DHT22;33304;52.456;13.328;2023-03-15T08:38:47;4.40;30.80
47576;DHT22;33304;52.456;13.328;2023-03-15T08:41:15;4.30;30.70
47576;DHT22;33304;52.456;13.328;2023-03-15T08:43:42;4.30;31.40
47576;DHT22;33304;52.456;13.328;2023-03-15T08:46:09;4.10;31.50
47576;DHT22;33304;52.456;13.328;2023-03-15T08:48:37;4.10;32.20
47576;DHT22;33304;52.456;13.328;2023-03-15T08:51:06;4.10;31.80
47576;DHT22;33304;52.456;13.328;2023-03-15T08:53:37;4.10;31.00
47576;DHT22;33304;52.456;13.328;2023-03-15T08:56:06;4.10;31.30
47576;DHT22;33304;52.456;13.328;2023-03-15T08:58:34;4.00;30.90
47576;DHT22;33304;52.456;13.328;2023-03-15T09:01:01;3.90;31.50
47576;DHT22;33304;52.456;13.328;2023-03-15T09:03:30;3.80;31.70
47576;DHT22;33304;52.456;13.328;2023-03-15T09:05:58;3.80;32.50
47576;DHT22;33304;52.456;13.328;2023-03-15T09:08:25;4.00;31.20
47576;DHT22;33304;52.456;13.328;2023-03-15T09:10:54;4.20;30.70
47576;DHT22;33304;52.456;13.328;2023-03-15T09:13:22;4.40;29.30
47576;DHT22;33304;52.456;13.328;2023-03-15T09:15:49;4.30;28.40
47576;DHT22;33304;52.456;13.328;2023-03-15T09:18:17;4.30;28.60
47576;DHT22;33304;52.456;13.328;2023-03-15T09:20:44;4.50;28.50
47576;DHT22;33304;52.456;13.328;2023-03-15T09:23:14;4.40;29.30
47576;DHT22;33304;52.456;13.328;2023-03-15T09:25:41;4.60;29.20
47576;DHT22;33304;52.456;13.328;2023-03-15T09:28:10;4.60;28.50
47576;DHT22;33304;52.456;13.328;2023-03-15T09:30:38;4.80;27.80
47576;DHT22;33304;52.456;13.328;2023-03-15T09:33:06;4.80;27.30
47576;DHT22;33304;52.456;13.328;2023-03-15T09:35:34;4.70;26.70
47576;DHT22;33304;52.456;13.328;2023-03-15T09:38:01;4.80;26.10
47576;DHT22;33304;52.456;13.328;2023-03-15T09:40:31;4.90;25.70
47576;DHT22;33304;52.456;13.328;2023-03-15T09:43:03;4.90;25.80
47576;DHT22;33304;52.456;13.328;2023-03-15T09:45:51;4.80;25.20
47576;DHT22;33304;52.456;13.328;2023-03-15T09:48:25;4.60;25.40
47576;DHT22;33304;52.456;13.328;2023-03-15T09:50:57;4.60;25.30
47576;DHT22;33304;52.456;13.328;2023-03-15T09:53:29;4.70;24.40
47576;DHT22;33304;52.456;13.328;2023-03-15T09:55:58;4.80;24.00
47576;DHT22;33304;52.456;13.328;2023-03-15T09:58:28;4.80;23.20
47576;DHT22;33304;52.456;13.328;2023-03-15T10:01:00;4.80;24.10
47576;DHT22;33304;52.456;13.328;2023-03-15T10:03:32;4.80;23.70
47576;DHT22;33304;52.456;13.328;2023-03-15T10:06:06;4.70;22.90
47576;DHT22;33304;52.456;13.328;2023-03-15T10:08:37;4.80;22.40
47576;DHT22;33304;52.456;13.328;2023-03-15T10:11:09;4.80;22.70
47576;DHT22;33304;52.456;13.328;2023-03-15T10:13:48;4.90;21.90
47576;DHT22;33304;52.456;13.328;2023-03-15T10:16:26;4.90;20.80
47576;DHT22;33304;52.456;13.328;2023-03-15T10:19:02;5.10;21.20
47576;DHT22;33304;52.456;13.328;2023-03-15T10:21:37;5.10;21.70
47576;DHT22;33304;52.456;13.328;2023-03-15T10:24:14;5.40;19.70
47576;DHT22;33304;52.456;13.328;2023-03-15T10:26:43;5.60;20.20
47576;DHT22;33304;52.456;13.328;2023-03-15T10:29:13;6.10;21.20
47576;DHT22;33304;52.456;13.328;2023-03-15T10:31:44;6.30;20.40
47576;DHT22;33304;52.456;13.328;2023-03-15T10:34:13;6.20;19.50
47576;DHT22;33304;52.456;13.328;2023-03-15T10:36:46;6.20;18.80
47576;DHT22;33304;52.456;13.328;2023-03-15T10:39:15;6.00;20.10
47576;DHT22;33304;52.456;13.328;2023-03-15T10:41:44;6.20;21.60
47576;DHT22;33304;52.456;13.328;2023-03-15T10:44:14;6.10;22.00
47576;DHT22;33304;52.456;13.328;2023-03-15T10:46:58;6.00;22.50
47576;DHT22;33304;52.456;13.328;2023-03-15T10:49:32;5.90;23.30
47576;DHT22;33304;52.456;13.328;2023-03-15T10:52:00;5.60;23.60
47576;DHT22;33304;52.456;13.328;2023-03-15T10:54:28;5.60;22.40
47576;DHT22;33304;52.456;13.328;2023-03-15T10:57:00;5.70;21.30
47576;DHT22;33304;52.456;13.328;2023-03-15T10:59:29;5.70;21.70
47576;DHT22;33304;52.456;13.328;2023-03-15T11:02:23;6.20;21.60
47576;DHT22;33304;52.456;13.328;2023-03-15T11:04:59;6.60;20.50
47576;DHT22;33304;52.456;13.328;2023-03-15T11:07:28;6.70;19.80
47576;DHT22;33304;52.456;13.328;2023-03-15T11:09:59;6.80;19.80
47576;DHT22;33304;52.456;13.328;2023-03-15T11:12:27;6.70;18.60
47576;DHT22;33304;52.456;13.328;2023-03-15T11:14:57;6.60;18.60
47576;DHT22;33304;52.456;13.328;2023-03-15T11:17:29;6.60;18.00
47576;DHT22;33304;52.456;13.328;2023-03-15T11:19:59;6.40;18.20
47576;DHT22;33304;52.456;13.328;2023-03-15T11:22:36;6.40;18.00
47576;DHT22;33304;52.456;13.328;2023-03-15T11:25:03;6.40;17.50
47576;DHT22;33304;52.456;13.328;2023-03-15T11:27:30;6.20;17.40
47576;DHT22;33304;52.456;13.328;2023-03-15T11:30:05;6.20;16.90
47576;DHT22;33304;52.456;13.328;2023-03-15T11:32:34;6.20;18.20
47576;DHT22;33304;52.456;13.328;2023-03-15T11:35:03;6.00;18.20
47576;DHT22;33304;52.456;13.328;2023-03-15T11:37:34;6.00;18.30
47576;DHT22;33304;52.456;13.328;2023-03-15T11:40:08;6.00;18.30
47576;DHT22;33304;52.456;13.328;2023-03-15T11:42:43;6.00;18.00
47576;DHT22;33304;52.456;13.328;2023-03-15T11:45:17;6.10;18.70
47576;DHT22;33304;52.456;13.328;2023-03-15T11:47:51;6.20;19.10
47576;DHT22;33304;52.456;13.328;2023-03-15T11:50:19;6.40;19.30
47576;DHT22;33304;52.456;13.328;2023-03-15T11:52:50;6.10;18.50
47576;DHT22;33304;52.456;13.328;2023-03-15T11:55:19;6.00;19.50
47576;DHT22;33304;52.456;13.328;2023-03-15T11:57:49;6.20;18.70
47576;DHT22;33304;52.456;13.328;2023-03-15T12:00:48;6.30;18.10
47576;DHT22;33304;52.456;13.328;2023-03-15T12:03:44;6.80;17.50
47576;DHT22;33304;52.456;13.328;2023-03-15T12:06:34;7.40;16.30
47576;DHT22;33304;52.456;13.328;2023-03-15T12:09:40;7.50;14.70
47576;DHT22;33304;52.456;13.328;2023-03-15T12:12:34;7.00;15.70
47576;DHT22;33304;52.456;13.328;2023-03-15T12:15:03;6.60;15.40
47576;DHT22;33304;52.456;13.328;2023-03-15T12:17:42;6.70;17.50
47576;DHT22;33304;52.456;13.328;2023-03-15T12:20:18;7.10;16.50
47576;DHT22;33304;52.456;13.328;2023-03-15T12:22:49;7.50;16.50
47576;DHT22;33304;52.456;13.328;2023-03-15T12:25:33;7.50;11.70
47576;DHT22;33304;52.456;13.328;2023-03-15T12:28:06;7.80;11.80
47576;DHT22;33304;52.456;13.328;2023-03-15T12:30:38;8.10;11.20
47576;DHT22;33304;52.456;13.328;2023-03-15T12:33:12;8.20;10.40
47576;DHT22;33304;52.456;13.328;2023-03-15T12:35:41;8.30;10.30
47576;DHT22;33304;52.456;13.328;2023-03-15T12:38:12;8.40;9.80
47576;DHT22;33304;52.456;13.328;2023-03-15T12:40:51;8.70;9.60
47576;DHT22;33304;52.456;13.328;2023-03-15T12:43:36;8.60;9.90
47576;DHT22;33304;52.456;13.328;2023-03-15T12:46:04;8.30;10.80
47576;DHT22;33304;52.456;13.328;2023-03-15T12:48:31;8.50;10.70
47576;DHT22;33304;52.456;13.328;2023-03-15T12:51:04;8.20;8.90
47576;DHT22;33304;52.456;13.328;2023-03-15T12:53:39;8.40;10.40
47576;DHT22;33304;52.456;13.328;2023-03-15T12:56:32;8.70;8.10
47576;DHT22;33304;52.456;13.328;2023-03-15T12:59:04;8.80;7.10
47576;DHT22;33304;52.456;13.328;2023-03-15T13:01:35;9.20;9.60
47576;DHT22;33304;52.456;13.328;2023-03-15T13:04:03;9.30;5.80
47576;DHT22;33304;52.456;13.328;2023-03-15T13:06:40;9.80;6.70
47576;DHT22;33304;52.456;13.328;2023-03-15T13:09:17;10.10;2.40
47576;DHT22;33304;52.456;13.328;2023-03-15T13:11:54;10.20;2.50
47576;DHT22;33304;52.456;13.328;2023-03-15T13:14:35;10.40;2.10
47576;DHT22;33304;52.456;13.328;2023-03-15T13:17:12;10.70;1.00
47576;DHT22;33304;52.456;13.328;2023-03-15T13:19:46;10.90;1.00
47576;DHT22;33304;52.456;13.328;2023-03-15T13:22:23;10.40;1.00
47576;DHT22;33304;52.456;13.328;2023-03-15T13:24:57;10.40;1.00
47576;DHT22;33304;52.456;13.328;2023-03-15T13:27:44;10.10;1.00
47576;DHT22;33304;52.456;13.328;2023-03-15T13:30:32;9.90;1.00
47576;DHT22;33304;52.456;13.328;2023-03-15T13:33:19;9.80;1.00
47576;DHT22;33304;52.456;13.328;2023-03-15T13:35:53;9.60;2.30
47576;DHT22;33304;52.456;13.328;2023-03-15T13:38:32;9.70;2.90
47576;DHT22;33304;52.456;13.328;2023-03-15T13:41:01;9.80;2.00
47576;DHT22;33304;52.456;13.328;2023-03-15T13:43:32;9.80;2.90
47576;DHT22;33304;52.456;13.328;2023-03-15T13:46:00;9.60;1.10
47576;DHT22;33304;52.456;13.328;2023-03-15T13:48:29;8.90;2.30
47576;DHT22;33304;52.456;13.328;2023-03-15T13:51:02;8.40;3.40
47576;DHT22;33304;52.456;13.328;2023-03-15T13:53:32;8.30;7.00
47576;DHT22;33304;52.456;13.328;2023-03-15T13:56:00;8.00;13.20
47576;DHT22;33304;52.456;13.328;2023-03-15T13:58:27;7.40;19.60
47576;DHT22;33304;52.456;13.328;2023-03-15T14:00:57;7.50;21.10
47576;DHT22;33304;52.456;13.328;2023-03-15T14:03:27;8.40;22.50
47576;DHT22;33304;52.456;13.328;2023-03-15T14:05:55;9.70;17.80
47576;DHT22;33304;52.456;13.328;2023-03-15T14:08:25;10.80;12.90
47576;DHT22;33304;52.456;13.328;2023-03-15T14:11:01;11.60;13.50
47576;DHT22;33304;52.456;13.328;2023-03-15T14:13:30;12.40;10.00
47576;DHT22;33304;52.456;13.328;2023-03-15T14:16:02;12.80;9.60
47576;DHT22;33304;52.456;13.328;2023-03-15T14:18:34;13.10;8.30
47576;DHT22;33304;52.456;13.328;2023-03-15T14:21:05;13.70;6.70
47576;DHT22;33304;52.456;13.328;2023-03-15T14:23:38;14.10;4.80
47576;DHT22;33304;52.456;13.328;2023-03-15T14:26:11;14.20;2.00
47576;DHT22;33304;52.456;13.328;2023-03-15T14:28:39;15.60;1.00
47576;DHT22;33304;52.456;13.328;2023-03-15T14:31:20;16.50;1.00
47576;DHT22;33304;52.456;13.328;2023-03-15T14:33:53;16.80;1.00
47576;DHT22;33304;52.456;13.328;2023-03-15T14:36:24;15.70;1.00
47576;DHT22;33304;52.456;13.328;2023-03-15T14:38:57;16.10;1.00
47576;DHT22;33304;52.456;13.328;2023-03-15T14:41:30;15.80;1.00
47576;DHT22;33304;52.456;13.328;2023-03-15T14:43:58;16.20;1.00
47576;DHT22;33304;52.456;13.328;2023-03-15T14:46:28;16.40;1.00
47576;DHT22;33304;52.456;13.328;2023-03-15T14:48:56;16.60;1.00
47576;DHT22;33304;52.456;13.328;2023-03-15T14:51:23;15.80;1.00
47576;DHT22;33304;52.456;13.328;2023-03-15T14:53:52;15.00;1.00
47576;DHT22;33304;52.456;13.328;2023-03-15T14:56:21;15.60;1.00
47576;DHT22;33304;52.456;13.328;2023-03-15T14:58:50;15.70;1.00
47576;DHT22;33304;52.456;13.328;2023-03-15T15:01:20;14.60;1.00
47576;DHT22;33304;52.456;13.328;2023-03-15T15:03:52;14.10;1.00
47576;DHT22;33304;52.456;13.328;2023-03-15T15:06:20;13.60;1.00
47576;DHT22;33304;52.456;13.328;2023-03-15T15:08:48;13.80;1.00
47576;DHT22;33304;52.456;13.328;2023-03-15T15:11:17;13.20;1.00
47576;DHT22;33304;52.456;13.328;2023-03-15T15:13:44;12.90;1.00
47576;DHT22;33304;52.456;13.328;2023-03-15T15:16:11;13.20;1.00
47576;DHT22;33304;52.456;13.328;2023-03-15T15:18:38;12.40;1.00
47576;DHT22;33304;52.456;13.328;2023-03-15T15:21:11;11.80;1.00
47576;DHT22;33304;52.456;13.328;2023-03-15T15:23:41;11.30;1.00
47576;DHT22;33304;52.456;13.328;2023-03-15T15:26:13;11.10;1.00
47576;DHT22;33304;52.456;13.328;2023-03-15T15:28:43;11.20;1.00
47576;DHT22;33304;52.456;13.328;2023-03-15T15:31:14;11.80;1.00
47576;DHT22;33304;52.456;13.328;2023-03-15T15:33:42;12.20;1.00
47576;DHT22;33304;52.456;13.328;2023-03-15T15:36:13;12.40;1.00
47576;DHT22;33304;52.456;13.328;2023-03-15T15:38:41;11.50;1.00
47576;DHT22;33304;52.456;13.328;2023-03-15T15:41:20;11.10;1.00
47576;DHT22;33304;52.456;13.328;2023-03-15T15:43:48;10.60;1.00
47576;DHT22;33304;52.456;13.328;2023-03-15T15:46:15;10.10;1.00
47576;DHT22;33304;52.456;13.328;2023-03-15T15:48:42;9.70;1.00
47576;DHT22;33304;52.456;13.328;2023-03-15T15:51:22;9.40;1.00
47576;DHT22;33304;52.456;13.328;2023-03-15T15:53:51;9.20;1.00
47576;DHT22;33304;52.456;13.328;2023-03-15T15:56:18;8.80;1.00
47576;DHT22;33304;52.456;13.328;2023-03-15T15:58:46;8.60;1.00
47576;DHT22;33304;52.456;13.328;2023-03-15T16:01:14;8.30;2.00